PRIVATE WETTERSTATION BILLIGHEIM-ALLFELD                       ZURCK
Wetterdaten: Freitag, 21.02.2014
Datum Zeit Temp. A. Temp. A. min Temp. A. max Feuchte A. Luftdruck Regen Wind Richtung Richtung Sonnenschein ET Solar Taupunkt Windchill Windben Empfang
21.02.2014 00:00 5,0 C 4,8 C 5,0 C 84 % 1008,9 hPa 0,0 l/m 4,8 km/h (1 Bft) S-SO 157 0 min 0,000 mm 0 W/m 2,5 C 5,0 C 9,7 km/h (2 Bft) 89 %
21.02.2014 00:10 5,4 C 5,0 C 5,4 C 84 % 1008,8 hPa 0,2 l/m 6,4 km/h (2 Bft) S-SO 157 0 min 0,000 mm 0 W/m 2,9 C 5,4 C 11,3 km/h (2 Bft) 96 %
21.02.2014 00:20 5,4 C 5,4 C 5,4 C 84 % 1008,8 hPa 0,0 l/m 3,2 km/h (1 Bft) S-SO 157 0 min 0,000 mm 0 W/m 2,9 C 5,4 C 9,7 km/h (2 Bft) 98 %
21.02.2014 00:30 5,3 C 5,3 C 5,4 C 86 % 1008,9 hPa 0,2 l/m 1,6 km/h (1 Bft) S-SO 157 0 min 0,000 mm 0 W/m 3,2 C 5,3 C 6,4 km/h (2 Bft) 97 %
21.02.2014 00:40 5,1 C 5,1 C 5,3 C 87 % 1008,7 hPa 0,4 l/m 1,6 km/h (1 Bft) S-SO 157 0 min 0,000 mm 0 W/m 3,1 C 5,1 C 6,4 km/h (2 Bft) 98 %
21.02.2014 00:50 4,9 C 4,9 C 5,1 C 87 % 1008,6 hPa 0,0 l/m 0,0 km/h (0 Bft) S-SO 157 0 min 0,000 mm 0 W/m 2,9 C 4,9 C 4,8 km/h (1 Bft) 98 %
21.02.2014 01:00 4,9 C 4,9 C 4,9 C 88 % 1008,6 hPa 0,0 l/m 1,6 km/h (1 Bft) SO 135 0 min 0,000 mm 0 W/m 3,1 C 4,9 C 6,4 km/h (2 Bft) 97 %
21.02.2014 01:10 4,8 C 4,8 C 4,9 C 88 % 1008,5 hPa 0,0 l/m 0,0 km/h (0 Bft) S-SO 157 0 min 0,000 mm 0 W/m 3,0 C 4,8 C 4,8 km/h (1 Bft) 98 %
21.02.2014 01:20 4,8 C 4,8 C 4,8 C 88 % 1008,5 hPa 0,0 l/m 1,6 km/h (1 Bft) S-SO 157 0 min 0,000 mm 0 W/m 3,0 C 4,8 C 6,4 km/h (2 Bft) 97 %
21.02.2014 01:30 4,8 C 4,8 C 4,8 C 88 % 1008,6 hPa 0,0 l/m 0,0 km/h (0 Bft) SO 135 0 min 0,000 mm 0 W/m 3,0 C 4,8 C 4,8 km/h (1 Bft) 98 %
21.02.2014 01:40 4,8 C 4,8 C 4,8 C 88 % 1008,7 hPa 0,0 l/m 0,0 km/h (0 Bft) S-SO 157 0 min 0,000 mm 0 W/m 3,0 C 4,8 C 4,8 km/h (1 Bft) 98 %
21.02.2014 01:50 4,8 C 4,8 C 4,8 C 88 % 1008,6 hPa 0,0 l/m 3,2 km/h (1 Bft) S 180 0 min 0,000 mm 0 W/m 3,0 C 4,8 C 6,4 km/h (2 Bft) 97 %
21.02.2014 02:00 4,8 C 4,8 C 4,9 C 88 % 1008,4 hPa 0,2 l/m 0,0 km/h (0 Bft) S 180 0 min 0,000 mm 0 W/m 3,0 C 4,8 C 6,4 km/h (2 Bft) 88 %
21.02.2014 02:10 4,9 C 4,8 C 4,9 C 88 % 1008,3 hPa 0,0 l/m 3,2 km/h (1 Bft) S-SO 157 0 min 0,000 mm 0 W/m 3,1 C 4,9 C 9,7 km/h (2 Bft) 97 %
21.02.2014 02:20 5,0 C 4,9 C 5,0 C 88 % 1008,2 hPa 0,0 l/m 1,6 km/h (1 Bft) S-SO 157 0 min 0,000 mm 0 W/m 3,2 C 5,0 C 8,0 km/h (2 Bft) 97 %
21.02.2014 02:30 4,9 C 4,9 C 5,0 C 88 % 1008,0 hPa 0,0 l/m 1,6 km/h (1 Bft) S-SO 157 0 min 0,000 mm 0 W/m 3,1 C 4,9 C 6,4 km/h (2 Bft) 97 %
21.02.2014 02:40 4,9 C 4,9 C 5,0 C 88 % 1007,8 hPa 0,0 l/m 1,6 km/h (1 Bft) S-SO 157 0 min 0,000 mm 0 W/m 3,1 C 4,9 C 8,0 km/h (2 Bft) 98 %
21.02.2014 02:50 4,9 C 4,9 C 4,9 C 88 % 1007,8 hPa 0,0 l/m 1,6 km/h (1 Bft) S-SO 157 0 min 0,000 mm 0 W/m 3,1 C 4,9 C 4,8 km/h (1 Bft) 97 %
21.02.2014 03:00 4,8 C 4,8 C 4,9 C 88 % 1007,7 hPa 0,0 l/m 0,0 km/h (0 Bft) S-SO 157 0 min 0,000 mm 0 W/m 3,0 C 4,8 C 3,2 km/h (1 Bft) 97 %
21.02.2014 03:10 4,8 C 4,8 C 4,9 C 88 % 1007,7 hPa 0,0 l/m 1,6 km/h (1 Bft) S-SO 157 0 min 0,000 mm 0 W/m 3,0 C 4,8 C 6,4 km/h (2 Bft) 98 %
21.02.2014 03:20 4,9 C 4,8 C 4,9 C 88 % 1007,7 hPa 0,0 l/m 1,6 km/h (1 Bft) S-SO 157 0 min 0,000 mm 0 W/m 3,1 C 4,9 C 6,4 km/h (2 Bft) 97 %
21.02.2014 03:30 4,9 C 4,9 C 4,9 C 88 % 1007,6 hPa 0,0 l/m 1,6 km/h (1 Bft) S-SO 157 0 min 0,000 mm 0 W/m 3,1 C 4,9 C 6,4 km/h (2 Bft) 98 %
21.02.2014 03:40 4,9 C 4,9 C 4,9 C 88 % 1007,6 hPa 0,0 l/m 1,6 km/h (1 Bft) S 180 0 min 0,000 mm 0 W/m 3,1 C 4,9 C 6,4 km/h (2 Bft) 96 %
21.02.2014 03:50 4,9 C 4,9 C 4,9 C 88 % 1007,6 hPa 0,0 l/m 1,6 km/h (1 Bft) S 180 0 min 0,000 mm 0 W/m 3,1 C 4,9 C 6,4 km/h (2 Bft) 98 %
21.02.2014 04:00 4,9 C 4,8 C 4,9 C 88 % 1007,5 hPa 0,0 l/m 4,8 km/h (1 Bft) S 180 0 min 0,000 mm 0 W/m 3,1 C 4,9 C 11,3 km/h (2 Bft) 97 %
21.02.2014 04:10 5,1 C 4,9 C 5,1 C 88 % 1007,5 hPa 0,0 l/m 4,8 km/h (1 Bft) S 180 0 min 0,000 mm 0 W/m 3,3 C 5,1 C 14,5 km/h (3 Bft) 89 %
21.02.2014 04:20 5,2 C 5,1 C 5,2 C 88 % 1007,5 hPa 0,2 l/m 8,0 km/h (2 Bft) S-SO 157 0 min 0,000 mm 0 W/m 3,4 C 3,8 C 16,1 km/h (3 Bft) 98 %
21.02.2014 04:30 5,3 C 5,2 C 5,3 C 88 % 1007,4 hPa 0,0 l/m 6,4 km/h (2 Bft) S 180 0 min 0,000 mm 0 W/m 3,5 C 5,3 C 11,3 km/h (2 Bft) 97 %
21.02.2014 04:40 5,3 C 5,3 C 5,3 C 88 % 1007,4 hPa 0,0 l/m 6,4 km/h (2 Bft) S 180 0 min 0,000 mm 0 W/m 3,5 C 5,3 C 11,3 km/h (2 Bft) 98 %
21.02.2014 04:50 5,3 C 5,3 C 5,3 C 88 % 1007,4 hPa 0,0 l/m 6,4 km/h (2 Bft) S-SW 202 0 min 0,000 mm 0 W/m 3,5 C 5,3 C 16,1 km/h (3 Bft) 97 %
21.02.2014 05:00 5,4 C 5,3 C 5,4 C 88 % 1007,6 hPa 0,0 l/m 6,4 km/h (2 Bft) S-SW 202 0 min 0,000 mm 0 W/m 3,6 C 5,4 C 11,3 km/h (2 Bft) 98 %
21.02.2014 05:10 5,5 C 5,4 C 5,5 C 88 % 1007,5 hPa 0,0 l/m 6,4 km/h (2 Bft) S-SW 202 0 min 0,000 mm 0 W/m 3,7 C 5,5 C 12,9 km/h (3 Bft) 97 %
21.02.2014 05:20 5,6 C 5,5 C 5,6 C 88 % 1007,5 hPa 0,0 l/m 6,4 km/h (2 Bft) S 180 0 min 0,000 mm 0 W/m 3,8 C 5,6 C 14,5 km/h (3 Bft) 98 %
21.02.2014 05:30 5,6 C 5,6 C 5,6 C 88 % 1007,4 hPa 0,0 l/m 4,8 km/h (1 Bft) S 180 0 min 0,000 mm 0 W/m 3,8 C 5,6 C 9,7 km/h (2 Bft) 97 %
21.02.2014 05:40 5,5 C 5,5 C 5,6 C 88 % 1007,7 hPa 0,0 l/m 1,6 km/h (1 Bft) S 180 0 min 0,000 mm 0 W/m 3,7 C 5,5 C 8,0 km/h (2 Bft) 97 %
21.02.2014 05:50 5,5 C 5,5 C 5,5 C 88 % 1007,7 hPa 0,0 l/m 6,4 km/h (2 Bft) S-SW 202 0 min 0,000 mm 0 W/m 3,7 C 5,5 C 11,3 km/h (2 Bft) 98 %
21.02.2014 06:00 5,4 C 5,4 C 5,5 C 88 % 1007,7 hPa 0,0 l/m 6,4 km/h (2 Bft) S 180 0 min 0,000 mm 0 W/m 3,6 C 5,4 C 11,3 km/h (2 Bft) 97 %
21.02.2014 06:10 5,3 C 5,3 C 5,4 C 88 % 1007,8 hPa 0,0 l/m 4,8 km/h (1 Bft) S 180 0 min 0,000 mm 0 W/m 3,5 C 5,3 C 9,7 km/h (2 Bft) 98 %
21.02.2014 06:20 5,3 C 5,3 C 5,3 C 88 % 1007,7 hPa 0,0 l/m 4,8 km/h (1 Bft) S 180 0 min 0,000 mm 0 W/m 3,5 C 5,3 C 9,7 km/h (2 Bft) 97 %
21.02.2014 06:30 5,4 C 5,3 C 5,4 C 88 % 1007,7 hPa 0,0 l/m 6,4 km/h (2 Bft) S 180 0 min 0,000 mm 0 W/m 3,6 C 5,4 C 11,3 km/h (2 Bft) 98 %
21.02.2014 06:40 5,6 C 5,4 C 5,6 C 88 % 1007,6 hPa 0,0 l/m 4,8 km/h (1 Bft) S 180 0 min 0,000 mm 0 W/m 3,8 C 5,6 C 12,9 km/h (3 Bft) 97 %
21.02.2014 06:50 5,6 C 5,6 C 5,6 C 88 % 1007,6 hPa 0,0 l/m 4,8 km/h (1 Bft) S 180 0 min 0,000 mm 0 W/m 3,8 C 5,6 C 11,3 km/h (2 Bft) 97 %
21.02.2014 07:00 5,5 C 5,5 C 5,6 C 88 % 1007,5 hPa 0,0 l/m 6,4 km/h (2 Bft) S-SO 157 0 min 0,000 mm 0 W/m 3,7 C 5,5 C 9,7 km/h (2 Bft) 99 %
21.02.2014 07:10 5,5 C 5,4 C 5,5 C 88 % 1007,2 hPa 0,0 l/m 6,4 km/h (2 Bft) S-SO 157 0 min 0,000 mm 0 W/m 3,7 C 5,5 C 11,3 km/h (2 Bft) 99 %
21.02.2014 07:20 5,5 C 5,5 C 5,5 C 88 % 1007,2 hPa 0,0 l/m 3,2 km/h (1 Bft) S-SO 157 0 min 0,000 mm 0 W/m 3,7 C 5,5 C 8,0 km/h (2 Bft) 98 %
21.02.2014 07:30 5,4 C 5,4 C 5,5 C 88 % 1007,4 hPa 0,0 l/m 3,2 km/h (1 Bft) S 180 0 min 0,000 mm 5 W/m 3,6 C 5,4 C 8,0 km/h (2 Bft) 99 %
21.02.2014 07:40 5,1 C 5,1 C 5,4 C 88 % 1007,5 hPa 0,0 l/m 4,8 km/h (1 Bft) S 180 0 min 0,000 mm 11 W/m 3,3 C 5,1 C 11,3 km/h (2 Bft) 99 %
21.02.2014 07:50 5,3 C 5,1 C 5,3 C 88 % 1007,6 hPa 0,0 l/m 4,8 km/h (1 Bft) S 180 0 min 0,000 mm 12 W/m 3,5 C 5,3 C 9,7 km/h (2 Bft) 100 %
21.02.2014 08:00 5,5 C 5,3 C 5,5 C 88 % 1007,6 hPa 0,0 l/m 1,6 km/h (1 Bft) S 180 0 min 0,000 mm 21 W/m 3,7 C 5,5 C 9,7 km/h (2 Bft) 99 %
21.02.2014 08:10 5,5 C 5,5 C 5,5 C 88 % 1007,7 hPa 0,0 l/m 0,0 km/h (0 Bft) S 180 0 min 0,000 mm 54 W/m 3,7 C 5,5 C 4,8 km/h (1 Bft) 100 %
21.02.2014 08:20 5,7 C 5,5 C 5,7 C 88 % 1007,7 hPa 0,0 l/m 1,6 km/h (1 Bft) S 180 0 min 0,000 mm 47 W/m 3,9 C 5,7 C 4,8 km/h (1 Bft) 99 %
21.02.2014 08:30 5,8 C 5,7 C 5,8 C 88 % 1007,8 hPa 0,0 l/m 3,2 km/h (1 Bft) S 180 0 min 0,000 mm 53 W/m 4,0 C 5,8 C 8,0 km/h (2 Bft) 100 %
21.02.2014 08:40 5,9 C 5,8 C 5,9 C 88 % 1008,0 hPa 0,0 l/m 3,2 km/h (1 Bft) S 180 0 min 0,000 mm 30 W/m 4,1 C 5,9 C 9,7 km/h (2 Bft) 100 %
21.02.2014 08:50 5,9 C 5,8 C 5,9 C 88 % 1008,1 hPa 0,0 l/m 4,8 km/h (1 Bft) S 180 0 min 0,000 mm 32 W/m 4,1 C 5,9 C 9,7 km/h (2 Bft) 99 %
21.02.2014 09:00 6,1 C 5,9 C 6,1 C 88 % 1008,1 hPa 0,0 l/m 1,6 km/h (1 Bft) S 180 0 min 0,025 mm 69 W/m 4,3 C 6,1 C 6,4 km/h (2 Bft) 100 %
21.02.2014 09:10 6,2 C 6,1 C 6,2 C 88 % 1008,2 hPa 0,0 l/m 3,2 km/h (1 Bft) S 180 0 min 0,000 mm 98 W/m 4,4 C 6,2 C 8,0 km/h (2 Bft) 100 %
21.02.2014 09:20 6,4 C 6,2 C 6,4 C 88 % 1008,3 hPa 0,0 l/m 6,4 km/h (2 Bft) S 180 0 min 0,000 mm 98 W/m 4,6 C 6,4 C 11,3 km/h (2 Bft) 100 %
21.02.2014 09:30 6,6 C 6,4 C 6,6 C 88 % 1008,3 hPa 0,0 l/m 4,8 km/h (1 Bft) S 180 0 min 0,000 mm 120 W/m 4,8 C 6,6 C 12,9 km/h (3 Bft) 99 %
21.02.2014 09:40 6,7 C 6,6 C 6,7 C 88 % 1008,4 hPa 0,0 l/m 8,0 km/h (2 Bft) S-SW 202 0 min 0,000 mm 97 W/m 4,9 C 5,4 C 17,7 km/h (3 Bft) 100 %
21.02.2014 09:50 6,7 C 6,7 C 6,8 C 88 % 1008,4 hPa 0,0 l/m 8,0 km/h (2 Bft) S 180 0 min 0,000 mm 54 W/m 4,9 C 5,4 C 16,1 km/h (3 Bft) 100 %
21.02.2014 10:00 6,8 C 6,7 C 6,8 C 88 % 1008,5 hPa 0,0 l/m 6,4 km/h (2 Bft) S-SW 202 0 min 0,051 mm 76 W/m 5,0 C 6,8 C 14,5 km/h (3 Bft) 100 %
21.02.2014 10:10 6,8 C 6,8 C 6,8 C 88 % 1008,6 hPa 0,0 l/m 4,8 km/h (1 Bft) S-SW 202 0 min 0,000 mm 56 W/m 5,0 C 6,8 C 11,3 km/h (2 Bft) 100 %
21.02.2014 10:20 6,8 C 6,8 C 6,8 C 88 % 1008,7 hPa 0,0 l/m 8,0 km/h (2 Bft) S 180 0 min 0,000 mm 54 W/m 5,0 C 5,5 C 16,1 km/h (3 Bft) 99 %
21.02.2014 10:30 6,9 C 6,8 C 6,9 C 88 % 1008,6 hPa 0,0 l/m 6,3 km/h (2 Bft) S 191 0 min 0,000 mm 118 W/m 5,1 C 6,9 C 9,7 km/h (2 Bft) 97 %
21.02.2014 10:40 7,1 C 6,9 C 7,1 C 88 % 1008,6 hPa 0,0 l/m 8,2 km/h (2 Bft) S-SW 200 10 min 0,000 mm 163 W/m 5,2 C 5,7 C 19,3 km/h (3 Bft) 89 %
21.02.2014 10:50 7,3 C 7,1 C 7,3 C 88 % 1008,7 hPa 0,0 l/m 10,2 km/h (2 Bft) S-SW 192 0 min 0,000 mm 128 W/m 5,4 C 4,5 C 22,5 km/h (4 Bft) 98 %
21.02.2014 11:00 7,4 C 7,3 C 7,4 C 89 % 1008,8 hPa 0,0 l/m 9,6 km/h (2 Bft) SW 221 10 min 0,051 mm 155 W/m 5,7 C 5,0 C 19,3 km/h (3 Bft) 98 %
21.02.2014 11:10 7,6 C 7,4 C 7,6 C 87 % 1008,7 hPa 0,0 l/m 12,7 km/h (3 Bft) SW 224 10 min 0,000 mm 211 W/m 5,6 C 3,4 C 29,0 km/h (5 Bft) 97 %
21.02.2014 11:20 7,9 C 7,6 C 7,9 C 86 % 1008,8 hPa 0,0 l/m 11,2 km/h (2 Bft) S-SW 207 10 min 0,000 mm 165 W/m 5,7 C 4,5 C 24,1 km/h (4 Bft) 98 %
21.02.2014 11:30 8,0 C 7,9 C 8,0 C 85 % 1008,9 hPa 0,0 l/m 10,2 km/h (2 Bft) SW 217 0 min 0,000 mm 127 W/m 5,6 C 5,3 C 24,1 km/h (4 Bft) 97 %
21.02.2014 11:40 7,9 C 7,9 C 8,0 C 84 % 1008,9 hPa 0,2 l/m 13,9 km/h (3 Bft) SW 218 0 min 0,000 mm 125 W/m 5,4 C 3,1 C 24,1 km/h (4 Bft) 98 %
21.02.2014 11:50 8,0 C 7,9 C 8,0 C 82 % 1009,1 hPa 0,0 l/m 20,4 km/h (4 Bft) W-SW 237 10 min 0,000 mm 211 W/m 5,1 C 0,6 C 37,0 km/h (5 Bft) 97 %
21.02.2014 12:00 8,2 C 8,0 C 8,2 C 81 % 1009,1 hPa 0,0 l/m 18,9 km/h (3 Bft) SW 223 10 min 0,102 mm 181 W/m 5,1 C 1,4 C 37,0 km/h (5 Bft) 98 %
21.02.2014 12:10 8,2 C 8,2 C 8,2 C 80 % 1009,0 hPa 0,0 l/m 17,3 km/h (3 Bft) SW 223 10 min 0,000 mm 171 W/m 5,0 C 2,0 C 32,2 km/h (5 Bft) 97 %
21.02.2014 12:20 8,1 C 8,1 C 8,2 C 78 % 1008,9 hPa 0,0 l/m 18,1 km/h (3 Bft) W-NW 298 10 min 0,000 mm 163 W/m 4,5 C 1,5 C 33,8 km/h (5 Bft) 98 %
21.02.2014 12:30 8,2 C 8,1 C 8,2 C 78 % 1008,7 hPa 0,0 l/m 18,2 km/h (3 Bft) W-SW 243 10 min 0,000 mm 272 W/m 4,6 C 1,6 C 35,4 km/h (5 Bft) 98 %
21.02.2014 12:40 8,3 C 8,2 C 8,3 C 77 % 1008,6 hPa 0,0 l/m 19,2 km/h (3 Bft) S-SW 201 10 min 0,000 mm 221 W/m 4,5 C 1,4 C 48,3 km/h (6 Bft) 97 %
21.02.2014 12:50 8,4 C 8,3 C 8,4 C 78 % 1008,6 hPa 0,0 l/m 16,1 km/h (3 Bft) S-SW 212 10 min 0,000 mm 290 W/m 4,8 C 2,7 C 37,0 km/h (5 Bft) 98 %
21.02.2014 13:00 8,6 C 8,4 C 8,6 C 75 % 1008,5 hPa 0,0 l/m 18,4 km/h (3 Bft) W-SW 240 10 min 0,127 mm 308 W/m 4,4 C 2,1 C 40,2 km/h (6 Bft) 97 %
21.02.2014 13:10 8,8 C 8,6 C 8,8 C 75 % 1008,6 hPa 0,0 l/m 15,3 km/h (3 Bft) W-SW 252 10 min 0,000 mm 246 W/m 4,6 C 3,5 C 38,6 km/h (5 Bft) 97 %
21.02.2014 13:20 8,9 C 8,8 C 8,9 C 73 % 1008,6 hPa 0,0 l/m 17,0 km/h (3 Bft) SW 223 10 min 0,000 mm 155 W/m 4,3 C 3,0 C 35,4 km/h (5 Bft) 98 %
21.02.2014 13:30 8,6 C 8,6 C 8,9 C 73 % 1008,6 hPa 0,0 l/m 18,7 km/h (3 Bft) W 279 10 min 0,000 mm 204 W/m 4,0 C 1,9 C 37,0 km/h (5 Bft) 98 %
21.02.2014 13:40 8,8 C 8,6 C 8,8 C 73 % 1008,8 hPa 0,0 l/m 15,0 km/h (3 Bft) W-SW 251 0 min 0,000 mm 132 W/m 4,2 C 3,7 C 27,4 km/h (4 Bft) 97 %
21.02.2014 13:50 8,6 C 8,6 C 8,8 C 75 % 1009,1 hPa 0,0 l/m 10,6 km/h (2 Bft) NW 321 0 min 0,000 mm 130 W/m 4,4 C 5,7 C 27,4 km/h (4 Bft) 98 %
21.02.2014 14:00 8,2 C 8,2 C 8,6 C 77 % 1009,2 hPa 0,0 l/m 12,3 km/h (3 Bft) W 265 0 min 0,127 mm 35 W/m 4,4 C 4,3 C 22,5 km/h (4 Bft) 98 %
21.02.2014 14:10 7,4 C 7,4 C 8,2 C 80 % 1009,0 hPa 0,4 l/m 9,8 km/h (2 Bft) W 268 10 min 0,000 mm 172 W/m 4,2 C 4,9 C 22,5 km/h (4 Bft) 97 %
21.02.2014 14:20 7,1 C 7,1 C 7,4 C 83 % 1009,1 hPa 0,0 l/m 5,4 km/h (1 Bft) W-SW 256 0 min 0,000 mm 100 W/m 4,4 C 7,1 C 12,9 km/h (3 Bft) 97 %
21.02.2014 14:30 6,9 C 6,9 C 7,1 C 83 % 1009,2 hPa 0,0 l/m 4,7 km/h (1 Bft) W-SW 252 0 min 0,000 mm 128 W/m 4,2 C 6,9 C 14,5 km/h (3 Bft) 98 %
21.02.2014 14:40 7,1 C 6,9 C 7,1 C 84 % 1009,1 hPa 0,0 l/m 3,0 km/h (1 Bft) W 261 10 min 0,000 mm 183 W/m 4,6 C 7,1 C 8,0 km/h (2 Bft) 97 %
21.02.2014 14:50 7,1 C 7,1 C 7,3 C 82 % 1009,8 hPa 1,0 l/m 10,5 km/h (2 Bft) NW 307 0 min 0,000 mm 30 W/m 4,2 C 4,1 C 37,0 km/h (5 Bft) 98 %
21.02.2014 15:00 5,8 C 5,8 C 7,1 C 84 % 1009,7 hPa 0,8 l/m 7,4 km/h (2 Bft) W-SW 247 0 min 0,050 mm 113 W/m 3,3 C 4,9 C 27,4 km/h (4 Bft) 97 %
21.02.2014 15:10 5,4 C 5,4 C 5,8 C 87 % 1009,6 hPa 0,0 l/m 3,8 km/h (1 Bft) SW 236 0 min 0,000 mm 93 W/m 3,4 C 5,4 C 9,7 km/h (2 Bft) 98 %
21.02.2014 15:20 5,4 C 5,4 C 5,4 C 87 % 1009,5 hPa 0,0 l/m 3,8 km/h (1 Bft) S-SO 157 0 min 0,000 mm 83 W/m 3,4 C 5,4 C 9,7 km/h (2 Bft) 98 %
21.02.2014 15:30 5,5 C 5,4 C 5,5 C 92 % 1009,5 hPa 0,0 l/m 3,4 km/h (1 Bft) S 184 0 min 0,000 mm 72 W/m 4,3 C 5,5 C 11,3 km/h (2 Bft) 100 %
21.02.2014 15:40 5,8 C 5,4 C 5,8 C 88 % 1009,4 hPa 0,0 l/m 4,1 km/h (1 Bft) S-SO 159 10 min 0,000 mm 163 W/m 4,0 C 5,8 C 9,7 km/h (2 Bft) 99 %
21.02.2014 15:50 6,2 C 5,8 C 6,2 C 86 % 1009,4 hPa 0,0 l/m 7,4 km/h (2 Bft) S-SW 211 0 min 0,000 mm 93 W/m 4,0 C 5,4 C 16,1 km/h (3 Bft) 99 %
21.02.2014 16:00 6,6 C 6,2 C 6,6 C 85 % 1009,3 hPa 0,0 l/m 10,7 km/h (2 Bft) W-SW 238 0 min 0,051 mm 90 W/m 4,3 C 3,4 C 20,9 km/h (4 Bft) 100 %
21.02.2014 16:10 6,7 C 6,6 C 6,7 C 84 % 1009,6 hPa 0,0 l/m 7,2 km/h (2 Bft) W-SW 238 0 min 0,000 mm 77 W/m 4,2 C 6,0 C 17,7 km/h (3 Bft) 99 %
21.02.2014 16:20 6,8 C 6,7 C 6,8 C 81 % 1009,5 hPa 0,0 l/m 6,9 km/h (2 Bft) S-SW 211 0 min 0,000 mm 33 W/m 3,8 C 6,4 C 16,1 km/h (3 Bft) 100 %
21.02.2014 16:30 6,9 C 6,8 C 6,9 C 80 % 1009,6 hPa 0,0 l/m 7,7 km/h (2 Bft) SW 232 0 min 0,000 mm 58 W/m 3,7 C 5,8 C 22,5 km/h (4 Bft) 100 %
21.02.2014 16:40 6,9 C 6,9 C 6,9 C 80 % 1009,9 hPa 0,0 l/m 6,9 km/h (2 Bft) SW 232 0 min 0,000 mm 35 W/m 3,7 C 6,5 C 12,9 km/h (3 Bft) 100 %
21.02.2014 16:50 6,9 C 6,9 C 6,9 C 81 % 1009,9 hPa 0,0 l/m 3,4 km/h (1 Bft) W-SW 244 0 min 0,000 mm 39 W/m 3,9 C 6,9 C 9,7 km/h (2 Bft) 100 %
21.02.2014 17:00 6,9 C 6,9 C 6,9 C 82 % 1009,9 hPa 0,0 l/m 1,4 km/h (1 Bft) SW 227 0 min 0,026 mm 26 W/m 4,0 C 6,9 C 8,0 km/h (2 Bft) 100 %
21.02.2014 17:10 6,8 C 6,8 C 6,9 C 78 % 1010,4 hPa 0,2 l/m 20,6 km/h (4 Bft) W 263 0 min 0,000 mm 25 W/m 3,2 C -1,1 C 49,9 km/h (6 Bft) 100 %
21.02.2014 17:20 6,6 C 6,6 C 6,8 C 80 % 1010,4 hPa 0,0 l/m 13,9 km/h (3 Bft) NW 321 0 min 0,000 mm 69 W/m 3,4 C 1,6 C 29,0 km/h (5 Bft) 100 %
21.02.2014 17:30 6,4 C 6,4 C 6,6 C 78 % 1010,6 hPa 0,0 l/m 15,2 km/h (3 Bft) W 263 0 min 0,000 mm 16 W/m 2,8 C 0,7 C 29,0 km/h (5 Bft) 100 %
21.02.2014 17:40 6,3 C 6,3 C 6,4 C 77 % 1010,6 hPa 0,0 l/m 13,3 km/h (3 Bft) W-NW 293 0 min 0,000 mm 16 W/m 2,6 C 1,5 C 29,0 km/h (5 Bft) 100 %
21.02.2014 17:50 6,3 C 6,3 C 6,4 C 77 % 1010,7 hPa 0,0 l/m 10,6 km/h (2 Bft) W 279 0 min 0,000 mm 5 W/m 2,6 C 3,1 C 25,7 km/h (4 Bft) 100 %
21.02.2014 18:00 6,2 C 6,2 C 6,3 C 75 % 1010,8 hPa 0,0 l/m 12,7 km/h (3 Bft) W 263 0 min 0,050 mm 0 W/m 2,1 C 1,7 C 27,4 km/h (4 Bft) 100 %
21.02.2014 18:10 6,1 C 6,1 C 6,2 C 75 % 1011,2 hPa 0,0 l/m 14,0 km/h (3 Bft) W-SW 245 0 min 0,000 mm 0 W/m 2,0 C 0,9 C 30,6 km/h (5 Bft) 100 %
21.02.2014 18:20 6,0 C 6,0 C 6,1 C 76 % 1011,5 hPa 0,0 l/m 14,8 km/h (3 Bft) W-NW 286 0 min 0,000 mm 0 W/m 2,1 C 0,4 C 27,4 km/h (4 Bft) 100 %
21.02.2014 18:30 5,8 C 5,8 C 6,0 C 76 % 1011,5 hPa 0,0 l/m 12,2 km/h (2 Bft) SW 234 0 min 0,000 mm 0 W/m 1,9 C 1,6 C 29,0 km/h (5 Bft) 100 %
21.02.2014 18:40 5,8 C 5,8 C 5,8 C 77 % 1011,5 hPa 0,0 l/m 14,1 km/h (3 Bft) W 281 0 min 0,000 mm 0 W/m 2,1 C 0,5 C 29,0 km/h (5 Bft) 100 %
21.02.2014 18:50 5,7 C 5,7 C 5,8 C 77 % 1011,8 hPa 0,0 l/m 11,3 km/h (2 Bft) W 278 0 min 0,000 mm 0 W/m 2,0 C 2,0 C 20,9 km/h (4 Bft) 100 %
21.02.2014 19:00 5,8 C 5,7 C 5,8 C 77 % 1011,9 hPa 0,0 l/m 10,6 km/h (2 Bft) W 259 0 min 0,026 mm 0 W/m 2,1 C 2,6 C 24,1 km/h (4 Bft) 100 %
21.02.2014 19:10 5,7 C 5,7 C 5,8 C 77 % 1012,1 hPa 0,0 l/m 7,8 km/h (2 Bft) S-SW 209 0 min 0,000 mm 0 W/m 2,0 C 4,5 C 19,3 km/h (3 Bft) 91 %
21.02.2014 19:20 5,7 C 5,7 C 5,8 C 77 % 1012,3 hPa 0,0 l/m 7,6 km/h (2 Bft) W-SW 251 0 min 0,000 mm 0 W/m 2,0 C 4,7 C 16,1 km/h (3 Bft) 100 %
21.02.2014 19:30 5,7 C 5,7 C 5,7 C 76 % 1012,4 hPa 0,0 l/m 10,1 km/h (2 Bft) W 261 0 min 0,000 mm 0 W/m 1,8 C 2,8 C 19,3 km/h (3 Bft) 100 %
21.02.2014 19:40 5,6 C 5,6 C 5,7 C 76 % 1012,5 hPa 0,0 l/m 7,2 km/h (2 Bft) W 261 0 min 0,000 mm 0 W/m 1,7 C 4,9 C 17,7 km/h (3 Bft) 100 %
21.02.2014 19:50 5,7 C 5,6 C 5,7 C 76 % 1012,5 hPa 0,0 l/m 8,1 km/h (2 Bft) W 275 0 min 0,000 mm 0 W/m 1,8 C 4,3 C 17,7 km/h (3 Bft) 100 %
21.02.2014 20:00 5,7 C 5,7 C 5,8 C 76 % 1012,4 hPa 0,0 l/m 7,5 km/h (2 Bft) W-SW 254 0 min 0,025 mm 0 W/m 1,8 C 4,8 C 17,7 km/h (3 Bft) 99 %
21.02.2014 20:10 5,7 C 5,7 C 5,8 C 76 % 1012,4 hPa 0,0 l/m 7,1 km/h (2 Bft) W 276 0 min 0,000 mm 0 W/m 1,8 C 5,1 C 14,5 km/h (3 Bft) 90 %
21.02.2014 20:20 5,6 C 5,6 C 5,7 C 77 % 1012,6 hPa 0,0 l/m 5,4 km/h (1 Bft) W-SW 251 0 min 0,000 mm 0 W/m 1,9 C 5,6 C 14,5 km/h (3 Bft) 100 %
21.02.2014 20:30 5,5 C 5,5 C 5,6 C 77 % 1012,7 hPa 0,0 l/m 4,0 km/h (1 Bft) W 270 0 min 0,000 mm 0 W/m 1,8 C 5,5 C 9,7 km/h (2 Bft) 100 %
21.02.2014 20:40 5,4 C 5,4 C 5,5 C 78 % 1012,8 hPa 0,0 l/m 5,5 km/h (1 Bft) W 267 0 min 0,000 mm 0 W/m 1,9 C 5,4 C 19,3 km/h (3 Bft) 100 %
21.02.2014 20:50 5,3 C 5,3 C 5,4 C 78 % 1012,9 hPa 0,0 l/m 5,0 km/h (1 Bft) W 275 0 min 0,000 mm 0 W/m 1,8 C 5,3 C 16,1 km/h (3 Bft) 100 %
21.02.2014 21:00 5,2 C 5,2 C 5,3 C 78 % 1012,9 hPa 0,0 l/m 2,7 km/h (1 Bft) W-NW 287 0 min 0,026 mm 0 W/m 1,7 C 5,2 C 8,0 km/h (2 Bft) 98 %
21.02.2014 21:10 5,1 C 5,1 C 5,2 C 79 % 1013,0 hPa 0,0 l/m 0,0 km/h (0 Bft) W-SW 247 0 min 0,000 mm 0 W/m 1,8 C 5,1 C 4,8 km/h (1 Bft) 100 %
21.02.2014 21:20 5,0 C 5,0 C 5,1 C 79 % 1013,1 hPa 0,0 l/m 1,6 km/h (1 Bft) W 270 0 min 0,000 mm 0 W/m 1,7 C 5,0 C 4,8 km/h (1 Bft) 100 %
21.02.2014 21:30 4,9 C 4,9 C 5,1 C 79 % 1013,3 hPa 0,0 l/m 1,6 km/h (1 Bft) W-SW 247 0 min 0,000 mm 0 W/m 1,6 C 4,9 C 8,0 km/h (2 Bft) 100 %
21.02.2014 21:40 4,7 C 4,7 C 4,9 C 79 % 1013,4 hPa 0,0 l/m 1,6 km/h (1 Bft) W-SW 247 0 min 0,000 mm 0 W/m 1,4 C 4,7 C 8,0 km/h (2 Bft) 100 %
21.02.2014 21:50 4,3 C 4,3 C 4,7 C 81 % 1013,6 hPa 0,0 l/m 1,6 km/h (1 Bft) SW 225 0 min 0,000 mm 0 W/m 1,3 C 4,3 C 8,0 km/h (2 Bft) 100 %
21.02.2014 22:00 3,8 C 3,8 C 4,3 C 83 % 1013,5 hPa 0,0 l/m 1,6 km/h (1 Bft) S 180 0 min 0,025 mm 0 W/m 1,2 C 3,8 C 6,4 km/h (2 Bft) 100 %
21.02.2014 22:10 3,3 C 3,3 C 3,8 C 84 % 1013,5 hPa 0,0 l/m 3,2 km/h (1 Bft) S 180 0 min 0,000 mm 0 W/m 0,9 C 3,3 C 8,0 km/h (2 Bft) 100 %
21.02.2014 22:20 3,0 C 3,0 C 3,3 C 86 % 1013,4 hPa 0,0 l/m 3,2 km/h (1 Bft) S-SW 202 0 min 0,000 mm 0 W/m 0,9 C 3,0 C 9,7 km/h (2 Bft) 100 %
21.02.2014 22:30 2,9 C 2,9 C 3,0 C 86 % 1013,5 hPa 0,0 l/m 1,6 km/h (1 Bft) S-SW 202 0 min 0,000 mm 0 W/m 0,8 C 2,9 C 9,7 km/h (2 Bft) 100 %
21.02.2014 22:40 2,9 C 2,8 C 2,9 C 86 % 1013,6 hPa 0,0 l/m 1,6 km/h (1 Bft) SW 225 0 min 0,000 mm 0 W/m 0,8 C 2,9 C 6,4 km/h (2 Bft) 100 %
21.02.2014 22:50 2,9 C 2,9 C 2,9 C 86 % 1013,6 hPa 0,2 l/m 0,0 km/h (0 Bft) S 180 0 min 0,000 mm 0 W/m 0,8 C 2,9 C 3,2 km/h (1 Bft) 100 %
21.02.2014 23:00 2,9 C 2,9 C 2,9 C 86 % 1013,6 hPa 0,0 l/m 3,2 km/h (1 Bft) SO 135 0 min 0,000 mm 0 W/m 0,8 C 2,9 C 6,4 km/h (2 Bft) 100 %
21.02.2014 23:10 3,0 C 2,9 C 3,1 C 86 % 1013,9 hPa 0,0 l/m 3,2 km/h (1 Bft) SO 135 0 min 0,000 mm 0 W/m 0,9 C 3,0 C 8,0 km/h (2 Bft) 100 %
21.02.2014 23:20 3,0 C 3,0 C 3,1 C 86 % 1014,0 hPa 0,0 l/m 1,6 km/h (1 Bft) S-SO 157 0 min 0,000 mm 0 W/m 0,9 C 3,0 C 8,0 km/h (2 Bft) 100 %
21.02.2014 23:30 2,9 C 2,9 C 3,0 C 85 % 1014,0 hPa 0,0 l/m 0,0 km/h (0 Bft) S-SO 157 0 min 0,000 mm 0 W/m 0,6 C 2,9 C 3,2 km/h (1 Bft) 100 %
21.02.2014 23:40 2,8 C 2,8 C 2,9 C 86 % 1014,0 hPa 0,0 l/m 0,0 km/h (0 Bft) S-SO 157 0 min 0,000 mm 0 W/m 0,7 C 2,8 C 1,6 km/h (1 Bft) 100 %
21.02.2014 23:50 2,7 C 2,7 C 2,8 C 86 % 1014,1 hPa 0,0 l/m 0,0 km/h (0 Bft) S-SW 202 0 min 0,000 mm 0 W/m 0,6 C 2,7 C 3,2 km/h (1 Bft) 100 %
_ Min-Zeit 23:50 23:50 23:50 13:20 07:10 - 00:50 - - - - - 23:50 17:10 23:40 02:00
Minimum _ 2,7 C 2,7 C 2,8 C 73 % 1007,2 hPa - 0,0 km/h (0 Bft) - - - - - 0,6 C -1,1 C 1,6 km/h (1 Bft) 88 %
_ Max-Zeit 13:20 13:20 13:20 15:30 23:50 14:50 17:10 - - 10:40 13:00 13:00 11:00 14:20 17:10 07:50
Maximum _ 8,9 C 8,8 C 8,9 C 92 % 1014,1 hPa 1,0 l/m 20,6 km/h
W (4 Bft)
- - 10 min 0,127 mm 308 W/m 5,7 C 7,1 C 49,9 km/h
S-SW (6 Bft)
100 %
Durchschnitt _ 5,8 C 5,8 C 5,9 C 84 % 1009,6 hPa #4,0 l/m 6,5 km/h (2 Bft) S - #3:00 h #0,762 mm 105 W/m 3,3 C 4,5 C 15,2 km/h (3 Bft) 98 %
PRIVATE WETTERSTATION BILLIGHEIM-ALLFELD - www.neckar-odenwald-wetter.de - Holger Sonntag